Diaz, Arkansas
Current Conditions -  °F | °C
As of 7:40 PM on Sunday 23 Nov 2014 (Local Time) from KM19 Reporting Station
Overcast Overcast  
Wind Chill: 61°   Ceiling: 700
Heat Index: 61°   Visibility: 10mi
Dew Point: 61°   Wind: 12mph
Humidity: 100%   Direction: 190°S
Pressure: 29.4"   Gusts: NA
Location:  35.64°N, 91.27°W
Report Text: KM19 240140Z AUTO 19010KT 10SM OVC007 16/16 A2940 RMK AO2 RAB00E17 P0000
Loading
Personal Weather Stations






























Interactive Weather Map New forecast layout! Learn more

10-Day Weather Forecast

Advertisements
Track Severe Weather on mobile